Time,TemperatureF,DewpointF,PressureIn,WindDirection,WindDirectionDegrees,WindSpeedMPH,WindSpeedGustMPH,Humidity,HourlyPrecipIn,Conditions,Clouds,dailyrainin,SoftwareType,DateUTC
2013-07-08 00:01:00,69.1,64.7,30.09,SW,219,0.0,0.0,86,0.00,,---,0.00,VWS V14.01,2013-07-08 04:01:00,
2013-07-08 00:02:00,69.1,64.7,30.09,SW,219,0.0,0.0,86,0.00,,---,0.00,VWS V14.01,2013-07-08 04:02:00,
2013-07-08 00:07:00,69.1,64.7,30.09,SW,219,0.0,0.0,86,0.00,,---,0.00,VWS V14.01,2013-07-08 04:07:00,
2013-07-08 00:12:00,69.1,64.7,30.09,SW,219,0.0,0.0,86,0.00,,---,0.00,VWS V14.01,2013-07-08 04:12:00,
2013-07-08 00:17:00,68.9,64.6,30.09,SW,219,0.0,0.0,86,0.00,,---,0.00,VWS V14.01,2013-07-08 04:17:00,
2013-07-08 00:22:00,68.9,64.6,30.09,SW,219,0.0,0.0,86,0.00,,---,0.00,VWS V14.01,2013-07-08 04:22:00,
2013-07-08 00:27:00,68.9,64.6,30.09,SW,219,0.0,0.0,86,0.00,,---,0.00,VWS V14.01,2013-07-08 04:27:00,
2013-07-08 00:32:00,68.7,64.4,30.09,SW,219,0.0,0.0,86,0.00,,---,0.00,VWS V14.01,2013-07-08 04:32:00,
2013-07-08 00:37:00,68.7,64.4,30.09,SW,219,0.0,0.0,86,0.00,,---,0.00,VWS V14.01,2013-07-08 04:37:00,
2013-07-08 00:42:00,69.1,65.1,30.09,SW,219,0.0,0.0,87,0.00,,---,0.00,VWS V14.01,2013-07-08 04:42:00,
2013-07-08 00:47:00,69.3,65.2,30.09,SW,219,0.0,0.0,87,0.00,,---,0.00,VWS V14.01,2013-07-08 04:47:00,
2013-07-08 00:52:00,69.3,65.2,30.09,SW,219,0.0,0.0,87,0.00,,---,0.00,VWS V14.01,2013-07-08 04:52:00,
2013-07-08 00:57:00,69.4,65.4,30.09,SW,219,0.0,0.0,87,0.00,,---,0.00,VWS V14.01,2013-07-08 04:57:00,
2013-07-08 01:02:00,69.4,65.4,30.09,SW,219,0.0,0.0,87,0.00,,---,0.00,VWS V14.01,2013-07-08 05:02:00,
2013-07-08 01:07:00,69.4,65.4,30.09,SW,219,0.0,0.0,87,0.00,,---,0.00,VWS V14.01,2013-07-08 05:07:00,
2013-07-08 01:12:00,69.6,65.9,30.09,SW,219,0.0,0.0,88,0.00,,---,0.00,VWS V14.01,2013-07-08 05:12:00,
2013-07-08 01:17:00,69.8,65.8,30.09,SW,219,0.0,0.0,87,0.00,,---,0.00,VWS V14.01,2013-07-08 05:17:00,
2013-07-08 01:22:00,69.8,65.8,30.09,SW,219,0.0,0.0,87,0.00,,---,0.00,VWS V14.01,2013-07-08 05:22:00,
2013-07-08 01:27:00,70.0,66.3,30.09,SW,219,0.0,0.0,88,0.00,,---,0.00,VWS V14.01,2013-07-08 05:27:00,
2013-07-08 01:32:00,70.0,65.9,30.09,SW,219,0.0,0.0,87,0.00,,---,0.00,VWS V14.01,2013-07-08 05:32:00,
2013-07-08 01:37:00,70.0,65.9,30.09,SW,217,0.0,0.0,87,0.00,,---,0.00,VWS V14.01,2013-07-08 05:37:00,
2013-07-08 01:42:00,69.8,65.8,30.09,SW,217,0.0,0.0,87,0.00,,---,0.00,VWS V14.01,2013-07-08 05:42:00,
2013-07-08 01:47:00,69.8,65.8,30.09,SW,217,0.0,0.0,87,0.00,,---,0.00,VWS V14.01,2013-07-08 05:47:00,
2013-07-08 01:52:00,69.8,66.1,30.09,SW,225,0.0,0.0,88,0.00,,---,0.00,VWS V14.01,2013-07-08 05:52:00,
2013-07-08 01:57:00,70.0,66.3,30.09,SW,225,0.0,0.0,88,0.00,,---,0.00,VWS V14.01,2013-07-08 05:57:00,
2013-07-08 02:02:00,70.0,66.3,30.09,SW,225,0.0,0.0,88,0.00,,---,0.00,VWS V14.01,2013-07-08 06:02:00,
2013-07-08 02:07:00,70.0,66.3,30.09,SW,225,0.0,0.0,88,0.00,,---,0.00,VWS V14.01,2013-07-08 06:07:00,
2013-07-08 02:12:00,70.0,66.3,30.09,SW,225,0.0,0.0,88,0.00,,---,0.00,VWS V14.01,2013-07-08 06:12:00,
2013-07-08 02:18:00,70.0,66.3,30.09,SW,225,0.0,0.0,88,0.00,,---,0.00,VWS V14.01,2013-07-08 06:18:00,
2013-07-08 02:23:00,70.0,66.3,30.09,SW,225,0.0,0.0,88,0.00,,---,0.00,VWS V14.01,2013-07-08 06:23:00,
2013-07-08 02:28:00,70.0,66.3,30.09,SW,225,0.0,0.0,88,0.00,,---,0.00,VWS V14.01,2013-07-08 06:28:00,
2013-07-08 02:33:00,70.0,66.3,30.09,SW,225,0.0,0.0,88,0.00,,---,0.00,VWS V14.01,2013-07-08 06:33:00,
2013-07-08 02:38:00,70.0,66.3,30.09,ENE,71,0.0,0.0,88,0.00,,---,0.00,VWS V14.01,2013-07-08 06:38:00,
2013-07-08 02:43:00,70.0,66.3,30.09,ENE,71,0.0,0.0,88,0.00,,---,0.00,VWS V14.01,2013-07-08 06:43:00,
2013-07-08 02:48:00,70.0,66.3,30.09,ENE,71,0.0,0.0,88,0.00,,---,0.00,VWS V14.01,2013-07-08 06:48:00,
2013-07-08 02:53:00,70.0,66.3,30.09,ENE,71,0.0,0.0,88,0.00,,---,0.00,VWS V14.01,2013-07-08 06:53:00,
2013-07-08 02:58:00,70.0,66.3,30.09,ENE,71,0.0,0.0,88,0.00,,---,0.00,VWS V14.01,2013-07-08 06:58:00,
2013-07-08 03:03:00,70.0,66.3,30.09,ENE,71,0.0,0.0,88,0.00,,---,0.00,VWS V14.01,2013-07-08 07:03:00,
2013-07-08 03:08:00,70.0,66.6,30.09,ENE,71,0.0,0.0,89,0.00,,---,0.00,VWS V14.01,2013-07-08 07:08:00,
2013-07-08 03:13:00,70.0,66.6,30.09,ENE,71,0.0,0.0,89,0.00,,---,0.00,VWS V14.01,2013-07-08 07:13:00,
2013-07-08 03:18:00,70.0,66.6,30.09,ENE,71,0.0,0.0,89,0.00,,---,0.00,VWS V14.01,2013-07-08 07:18:00,
2013-07-08 03:23:00,70.2,66.8,30.09,ENE,71,0.0,0.0,89,0.00,,---,0.00,VWS V14.01,2013-07-08 07:23:00,
2013-07-08 03:28:00,70.2,66.8,30.09,ENE,71,0.0,0.0,89,0.00,,---,0.00,VWS V14.01,2013-07-08 07:28:00,
2013-07-08 03:33:00,70.2,66.8,30.09,ENE,71,0.0,0.0,89,0.00,,---,0.00,VWS V14.01,2013-07-08 07:33:00,
2013-07-08 03:38:00,70.3,66.9,30.09,ENE,71,0.0,0.0,89,0.00,,---,0.00,VWS V14.01,2013-07-08 07:38:00,
2013-07-08 03:43:00,70.3,66.9,30.09,ENE,71,0.0,0.0,89,0.00,,---,0.00,VWS V14.01,2013-07-08 07:43:00,
2013-07-08 03:48:00,70.3,66.9,30.09,ENE,71,0.0,0.0,89,0.00,,---,0.00,VWS V14.01,2013-07-08 07:48:00,
2013-07-08 03:53:00,70.2,66.8,30.09,ENE,71,0.0,0.0,89,0.00,,---,0.00,VWS V14.01,2013-07-08 07:53:00,
2013-07-08 03:58:00,70.2,66.8,30.09,ENE,71,0.0,0.0,89,0.00,,---,0.00,VWS V14.01,2013-07-08 07:58:00,
2013-07-08 04:03:00,70.3,66.9,30.09,ENE,71,0.0,0.0,89,0.00,,---,0.00,VWS V14.01,2013-07-08 08:03:00,
2013-07-08 04:08:00,70.3,66.9,30.09,ENE,71,0.0,0.0,89,0.00,,---,0.00,VWS V14.01,2013-07-08 08:08:00,
2013-07-08 04:13:00,70.3,66.9,30.09,ENE,71,0.0,0.0,89,0.00,,---,0.00,VWS V14.01,2013-07-08 08:13:00,
2013-07-08 04:18:00,70.3,66.9,30.09,ENE,71,0.0,0.0,89,0.00,,---,0.00,VWS V14.01,2013-07-08 08:18:00,
2013-07-08 04:23:00,70.3,67.3,30.09,North,353,0.0,0.0,90,0.00,,---,0.00,VWS V14.01,2013-07-08 08:23:00,
2013-07-08 04:28:00,70.3,67.3,30.09,North,353,0.0,0.0,90,0.00,,---,0.00,VWS V14.01,2013-07-08 08:28:00,
2013-07-08 04:33:00,70.2,67.1,30.09,North,353,0.0,0.0,90,0.00,,---,0.00,VWS V14.01,2013-07-08 08:33:00,
2013-07-08 04:38:00,69.8,66.4,30.09,NNE,21,0.0,0.0,89,0.00,,---,0.00,VWS V14.01,2013-07-08 08:38:00,
2013-07-08 04:43:00,69.6,66.2,30.09,West,271,0.0,0.0,89,0.00,,---,0.00,VWS V14.01,2013-07-08 08:43:00,
2013-07-08 04:48:00,69.3,65.9,30.09,West,271,0.0,0.0,89,0.00,,---,0.00,VWS V14.01,2013-07-08 08:48:00,
2013-07-08 04:53:00,68.7,65.0,30.09,NNW,342,0.0,0.0,88,0.00,,---,0.00,VWS V14.01,2013-07-08 08:53:00,
2013-07-08 04:58:00,68.7,65.3,30.09,NE,55,0.0,0.0,89,0.00,,---,0.00,VWS V14.01,2013-07-08 08:58:00,
2013-07-08 05:03:00,69.1,65.7,30.09,NE,55,0.0,0.0,89,0.00,,---,0.00,VWS V14.01,2013-07-08 09:03:00,
2013-07-08 05:08:00,69.3,65.9,30.09,NE,55,0.0,0.0,89,0.00,,---,0.00,VWS V14.01,2013-07-08 09:08:00,
2013-07-08 05:14:00,69.4,66.4,30.09,NE,55,0.0,0.0,90,0.00,,---,0.00,VWS V14.01,2013-07-08 09:14:00,
2013-07-08 05:19:00,69.6,66.6,30.09,NE,55,0.0,0.0,90,0.00,,---,0.00,VWS V14.01,2013-07-08 09:19:00,
2013-07-08 05:24:00,69.6,66.6,30.09,NE,55,0.0,0.0,90,0.00,,---,0.00,VWS V14.01,2013-07-08 09:24:00,
2013-07-08 05:29:00,69.8,66.7,30.09,NE,55,0.0,0.0,90,0.00,,---,0.00,VWS V14.01,2013-07-08 09:29:00,
2013-07-08 05:34:00,70.0,66.9,30.09,NE,55,0.0,0.0,90,0.00,,---,0.00,VWS V14.01,2013-07-08 09:34:00,
2013-07-08 05:39:00,70.0,66.9,30.09,NE,55,0.0,0.0,90,0.00,,---,0.00,VWS V14.01,2013-07-08 09:39:00,
2013-07-08 05:44:00,70.0,66.9,30.09,NE,55,0.0,0.0,90,0.00,,---,0.00,VWS V14.01,2013-07-08 09:44:00,
2013-07-08 05:49:00,70.0,66.9,30.12,NE,55,0.0,0.0,90,0.00,,---,0.00,VWS V14.01,2013-07-08 09:49:00,
2013-07-08 05:54:00,70.0,66.9,30.12,NE,55,0.0,0.0,90,0.00,,---,0.00,VWS V14.01,2013-07-08 09:54:00,
2013-07-08 05:59:00,70.0,66.9,30.12,NE,55,0.0,0.0,90,0.00,,---,0.00,VWS V14.01,2013-07-08 09:59:00,
2013-07-08 06:04:00,70.0,66.9,30.12,NE,55,0.0,0.0,90,0.00,,---,0.00,VWS V14.01,2013-07-08 10:04:00,
2013-07-08 06:09:00,70.0,66.9,30.12,NE,55,0.0,0.0,90,0.00,,---,0.00,VWS V14.01,2013-07-08 10:09:00,
2013-07-08 06:14:00,70.0,66.9,30.12,NE,55,0.0,0.0,90,0.00,,---,0.00,VWS V14.01,2013-07-08 10:14:00,
2013-07-08 06:19:00,69.8,66.7,30.12,NE,55,0.0,0.0,90,0.00,,---,0.00,VWS V14.01,2013-07-08 10:19:00,
2013-07-08 06:24:00,69.4,66.4,30.12,NE,55,0.0,0.0,90,0.00,,---,0.00,VWS V14.01,2013-07-08 10:24:00,
2013-07-08 06:29:00,69.6,66.6,30.12,NE,55,0.0,0.0,90,0.00,,---,0.00,VWS V14.01,2013-07-08 10:29:00,
2013-07-08 06:34:00,69.8,66.7,30.12,NE,55,0.0,0.0,90,0.00,,---,0.00,VWS V14.01,2013-07-08 10:34:00,
2013-07-08 06:39:00,70.0,66.9,30.12,NE,55,0.0,0.0,90,0.00,,---,0.00,VWS V14.01,2013-07-08 10:39:00,
2013-07-08 06:44:00,70.0,66.9,30.12,NE,55,0.0,0.0,90,0.00,,---,0.00,VWS V14.01,2013-07-08 10:44:00,
2013-07-08 06:49:00,69.6,66.6,30.12,NE,55,0.0,0.0,90,0.00,,---,0.00,VWS V14.01,2013-07-08 10:49:00,
2013-07-08 06:54:00,69.6,66.6,30.12,NE,55,0.0,0.0,90,0.00,,---,0.00,VWS V14.01,2013-07-08 10:54:00,
2013-07-08 06:59:00,69.4,66.4,30.12,NE,55,0.0,0.0,90,0.00,,---,0.00,VWS V14.01,2013-07-08 10:59:00,
2013-07-08 07:04:00,69.3,66.2,30.12,NE,55,0.0,0.0,90,0.00,,---,0.00,VWS V14.01,2013-07-08 11:04:00,
2013-07-08 07:09:00,69.3,66.2,30.12,NE,55,0.0,0.0,90,0.00,,---,0.00,VWS V14.01,2013-07-08 11:09:00,
2013-07-08 07:14:00,69.3,66.2,30.12,NE,55,0.0,0.0,90,0.00,,---,0.00,VWS V14.01,2013-07-08 11:14:00,
2013-07-08 07:19:00,69.1,66.0,30.12,NE,55,0.0,0.0,90,0.00,,---,0.00,VWS V14.01,2013-07-08 11:19:00,
2013-07-08 07:24:00,68.9,65.8,30.12,NE,55,0.0,0.0,90,0.00,,---,0.00,VWS V14.01,2013-07-08 11:24:00,
2013-07-08 07:29:00,69.1,66.0,30.12,NE,55,0.0,0.0,90,0.00,,---,0.00,VWS V14.01,2013-07-08 11:29:00,
2013-07-08 07:34:00,69.3,66.5,30.12,NE,55,0.0,0.0,91,0.00,,---,0.00,VWS V14.01,2013-07-08 11:34:00,
2013-07-08 07:39:00,69.3,66.5,30.12,NE,55,0.0,0.0,91,0.00,,---,0.00,VWS V14.01,2013-07-08 11:39:00,
2013-07-08 07:44:00,69.4,66.7,30.12,NE,55,0.0,0.0,91,0.00,,---,0.00,VWS V14.01,2013-07-08 11:44:00,
2013-07-08 07:49:00,69.6,66.9,30.12,NE,55,0.0,0.0,91,0.00,,---,0.00,VWS V14.01,2013-07-08 11:49:00,
2013-07-08 07:55:00,70.0,67.2,30.12,NE,55,0.0,0.0,91,0.00,,---,0.00,VWS V14.01,2013-07-08 11:55:00,
2013-07-08 08:00:00,70.2,67.4,30.12,NE,55,0.0,0.0,91,0.00,,---,0.00,VWS V14.01,2013-07-08 12:00:00,
2013-07-08 08:05:00,70.5,67.8,30.12,NE,55,0.0,0.0,91,0.00,,---,0.00,VWS V14.01,2013-07-08 12:05:00,
2013-07-08 08:10:00,70.9,68.1,30.12,NE,55,0.0,0.0,91,0.00,,---,0.00,VWS V14.01,2013-07-08 12:10:00,
2013-07-08 08:15:00,71.4,69.0,30.12,NE,55,0.0,0.0,92,0.00,,---,0.00,VWS V14.01,2013-07-08 12:15:00,
2013-07-08 08:20:00,71.8,69.0,30.12,NE,55,0.0,0.0,91,0.00,,---,0.00,VWS V14.01,2013-07-08 12:20:00,
2013-07-08 08:25:00,72.0,69.2,30.12,NE,55,0.0,0.0,91,0.00,,---,0.00,VWS V14.01,2013-07-08 12:25:00,
2013-07-08 08:30:00,72.0,69.2,30.15,NE,55,0.0,0.0,91,0.00,,---,0.00,VWS V14.01,2013-07-08 12:30:00,
2013-07-08 08:35:00,72.1,69.4,30.15,NE,55,0.0,0.0,91,0.00,,---,0.00,VWS V14.01,2013-07-08 12:35:00,
2013-07-08 08:40:00,72.3,69.6,30.15,NE,55,0.0,2.2,91,0.00,,---,0.00,VWS V14.01,2013-07-08 12:40:00,
2013-07-08 08:45:00,72.5,69.7,30.15,NE,55,0.0,0.0,91,0.00,,---,0.00,VWS V14.01,2013-07-08 12:45:00,
2013-07-08 08:50:00,72.9,70.1,30.15,WSW,237,2.7,3.6,91,0.00,,---,0.00,VWS V14.01,2013-07-08 12:50:00,
2013-07-08 08:55:00,73.0,70.3,30.15,SW,218,0.0,0.0,91,0.00,,---,0.00,VWS V14.01,2013-07-08 12:55:00,
2013-07-08 09:00:00,73.0,70.3,30.12,SW,218,0.0,0.0,91,0.00,,---,0.00,VWS V14.01,2013-07-08 13:00:00,
2013-07-08 09:05:00,73.0,70.3,30.12,WSW,253,0.0,0.0,91,0.00,,---,0.00,VWS V14.01,2013-07-08 13:05:00,
2013-07-08 09:10:00,73.2,70.4,30.12,WSW,253,0.0,0.0,91,0.00,,---,0.00,VWS V14.01,2013-07-08 13:10:00,
2013-07-08 09:15:00,73.6,70.8,30.15,WSW,253,0.0,0.0,91,0.00,,---,0.00,VWS V14.01,2013-07-08 13:15:00,
2013-07-08 09:20:00,73.8,71.0,30.15,WSW,253,0.0,0.0,91,0.00,,---,0.00,VWS V14.01,2013-07-08 13:20:00,
2013-07-08 09:21:00,73.8,71.0,30.15,WSW,253,0.0,0.0,91,0.00,,---,0.00,VWS V14.01,2013-07-08 13:21:00,
2013-07-08 09:26:00,73.9,71.2,30.15,WSW,253,0.0,0.0,91,0.00,,---,0.00,VWS V14.01,2013-07-08 13:26:00,
2013-07-08 09:31:00,74.3,71.5,30.15,WSW,253,0.0,0.0,91,0.00,,---,0.00,VWS V14.01,2013-07-08 13:31:00,
2013-07-08 09:36:00,74.7,71.9,30.15,WSW,246,0.0,0.0,91,0.00,,---,0.00,VWS V14.01,2013-07-08 13:36:00,
2013-07-08 09:41:00,74.8,72.0,30.15,WSW,246,0.0,0.0,91,0.00,,---,0.00,VWS V14.01,2013-07-08 13:41:00,
2013-07-08 09:46:00,74.7,71.9,30.15,WSW,239,0.0,0.0,91,0.00,,---,0.00,VWS V14.01,2013-07-08 13:46:00,
2013-07-08 09:51:00,74.5,71.4,30.15,SW,223,0.0,0.0,90,0.00,,---,0.00,VWS V14.01,2013-07-08 13:51:00,
2013-07-08 09:56:00,74.5,71.4,30.15,SW,223,0.0,0.0,90,0.00,,---,0.00,VWS V14.01,2013-07-08 13:56:00,
2013-07-08 10:01:00,74.5,71.4,30.15,SW,223,0.0,0.0,90,0.00,,---,0.00,VWS V14.01,2013-07-08 14:01:00,
2013-07-08 10:06:00,74.3,71.2,30.15,SW,227,3.1,4.0,90,0.00,,---,0.00,VWS V14.01,2013-07-08 14:06:00,
2013-07-08 10:11:00,73.9,70.5,30.15,SSW,197,0.0,0.0,89,0.00,,---,0.00,VWS V14.01,2013-07-08 14:11:00,
2013-07-08 10:16:00,73.8,70.0,30.15,SW,217,0.0,2.2,88,0.00,,---,0.00,VWS V14.01,2013-07-08 14:16:00,
2013-07-08 10:21:00,73.9,70.2,30.15,SW,230,4.0,4.0,88,0.00,,---,0.00,VWS V14.01,2013-07-08 14:21:00,
2013-07-08 10:26:00,73.8,69.7,30.15,WSW,248,2.7,2.7,87,0.00,,---,0.00,VWS V14.01,2013-07-08 14:26:00,
2013-07-08 10:31:00,73.8,69.3,30.15,SSW,201,0.0,0.0,86,0.00,,---,0.00,VWS V14.01,2013-07-08 14:31:00,
2013-07-08 10:36:00,73.6,69.1,30.15,East,87,0.0,0.0,86,0.00,,---,0.00,VWS V14.01,2013-07-08 14:36:00,
2013-07-08 10:41:00,73.6,68.8,30.15,SW,227,0.0,0.0,85,0.00,,---,0.00,VWS V14.01,2013-07-08 14:41:00,
2013-07-08 10:46:00,73.0,66.9,30.15,SW,225,4.0,4.5,81,0.00,,---,0.00,VWS V14.01,2013-07-08 14:46:00,
2013-07-08 10:51:00,72.1,63.4,30.15,SW,218,4.5,5.8,74,0.00,,---,0.00,VWS V14.01,2013-07-08 14:51:00,
2013-07-08 10:57:00,71.2,60.6,30.15,SSW,208,4.0,4.9,69,0.00,,---,0.00,VWS V14.01,2013-07-08 14:57:00,
2013-07-08 11:02:00,70.7,58.4,30.15,WSW,238,4.9,6.7,65,0.00,,---,0.00,VWS V14.01,2013-07-08 15:02:00,
2013-07-08 11:07:00,70.7,57.1,30.15,WSW,238,2.7,3.6,62,0.00,,---,0.00,VWS V14.01,2013-07-08 15:07:00,
2013-07-08 11:12:00,71.1,57.0,30.15,SW,218,2.2,3.6,61,0.00,,---,0.00,VWS V14.01,2013-07-08 15:12:00,
2013-07-08 11:17:00,71.2,56.2,30.15,SW,225,3.6,3.6,59,0.00,,---,0.00,VWS V14.01,2013-07-08 15:17:00,
2013-07-08 11:22:00,71.4,55.9,30.15,West,281,3.6,3.6,58,0.00,,---,0.00,VWS V14.01,2013-07-08 15:22:00,
2013-07-08 11:27:00,71.8,56.2,30.15,WSW,257,0.0,4.9,58,0.00,,---,0.00,VWS V14.01,2013-07-08 15:27:00,
2013-07-08 11:32:00,72.3,57.2,30.15,WSW,257,2.7,2.7,59,0.00,,---,0.00,VWS V14.01,2013-07-08 15:32:00,
2013-07-08 11:37:00,72.5,57.4,30.15,WSW,251,0.0,0.0,59,0.00,,---,0.00,VWS V14.01,2013-07-08 15:37:00,
2013-07-08 11:42:00,72.7,56.1,30.15,WSW,242,4.9,5.4,56,0.00,,---,0.00,VWS V14.01,2013-07-08 15:42:00,
2013-07-08 11:47:00,72.5,55.4,30.15,West,272,3.1,3.1,55,0.00,,---,0.00,VWS V14.01,2013-07-08 15:47:00,
2013-07-08 11:52:00,72.3,54.8,30.15,WSW,238,2.7,3.6,54,0.00,,---,0.00,VWS V14.01,2013-07-08 15:52:00,
2013-07-08 11:57:00,72.5,54.4,30.15,WNW,290,4.0,5.4,53,0.00,,---,0.00,VWS V14.01,2013-07-08 15:57:00,
2013-07-08 12:02:00,73.0,55.4,30.15,SSW,213,3.6,4.0,54,0.00,,---,0.00,VWS V14.01,2013-07-08 16:02:00,
2013-07-08 12:07:00,73.6,55.9,30.15,WNW,298,5.4,5.4,54,0.00,,---,0.00,VWS V14.01,2013-07-08 16:07:00,
2013-07-08 12:12:00,73.9,55.2,30.15,SSE,163,3.1,3.1,52,0.00,,---,0.00,VWS V14.01,2013-07-08 16:12:00,
2013-07-08 12:17:00,74.3,55.6,30.15,SSW,209,2.7,5.4,52,0.00,,---,0.00,VWS V14.01,2013-07-08 16:17:00,
2013-07-08 12:22:00,74.5,52.4,30.15,South,190,4.0,5.4,46,0.00,,---,0.00,VWS V14.01,2013-07-08 16:22:00,
2013-07-08 12:27:00,75.0,52.9,30.15,WSW,243,7.6,8.1,46,0.00,,---,0.00,VWS V14.01,2013-07-08 16:27:00,
2013-07-08 12:32:00,75.0,51.7,30.15,WSW,254,0.0,0.0,44,0.00,,---,0.00,VWS V14.01,2013-07-08 16:32:00,
2013-07-08 12:38:00,75.0,51.0,30.15,WSW,237,3.6,3.6,43,0.00,,---,0.00,VWS V14.01,2013-07-08 16:38:00,
2013-07-08 12:43:00,75.6,52.1,30.15,SW,219,0.0,0.0,44,0.00,,---,0.00,VWS V14.01,2013-07-08 16:43:00,
2013-07-08 12:48:00,76.1,52.6,30.15,WSW,248,3.1,3.1,44,0.00,,---,0.00,VWS V14.01,2013-07-08 16:48:00,
2013-07-08 12:53:00,76.3,52.2,30.15,SW,220,2.2,2.7,43,0.00,,---,0.00,VWS V14.01,2013-07-08 16:53:00,
2013-07-08 12:58:00,76.6,52.5,30.15,South,187,0.0,0.0,43,0.00,,---,0.00,VWS V14.01,2013-07-08 16:58:00,
2013-07-08 13:03:00,76.6,49.2,30.12,WSW,243,2.7,3.1,38,0.00,,---,0.00,VWS V14.01,2013-07-08 17:03:00,
2013-07-08 13:08:00,76.6,51.8,30.12,SW,236,2.7,4.0,42,0.00,,---,0.00,VWS V14.01,2013-07-08 17:08:00,
2013-07-08 13:13:00,76.8,47.9,30.12,SW,222,3.1,3.1,36,0.00,,---,0.00,VWS V14.01,2013-07-08 17:13:00,
2013-07-08 13:18:00,76.8,50.0,30.12,SSW,210,6.3,6.3,39,0.00,,---,0.00,VWS V14.01,2013-07-08 17:18:00,
2013-07-08 13:23:00,76.8,47.9,30.12,WSW,252,2.7,3.1,36,0.00,,---,0.00,VWS V14.01,2013-07-08 17:23:00,
2013-07-08 13:28:00,76.8,49.3,30.12,East,86,0.0,0.0,38,0.00,,---,0.00,VWS V14.01,2013-07-08 17:28:00,
2013-07-08 13:33:00,75.9,47.8,30.12,West,272,3.1,3.6,37,0.00,,---,0.00,VWS V14.01,2013-07-08 17:33:00,
2013-07-08 13:38:00,75.4,50.1,30.12,East,81,0.0,0.0,41,0.00,,---,0.00,VWS V14.01,2013-07-08 17:38:00,
2013-07-08 13:43:00,75.4,50.7,30.12,SE,129,2.2,3.1,42,0.00,,---,0.00,VWS V14.01,2013-07-08 17:43:00,
2013-07-08 13:48:00,75.9,50.5,30.12,WSW,244,0.0,0.0,41,0.00,,---,0.00,VWS V14.01,2013-07-08 17:48:00,
2013-07-08 13:54:00,76.6,52.5,30.12,SW,227,3.1,3.1,43,0.00,,---,0.00,VWS V14.01,2013-07-08 17:54:00,
2013-07-08 13:59:00,76.6,51.2,30.12,SSW,202,2.2,2.7,41,0.00,,---,0.00,VWS V14.01,2013-07-08 17:59:00,
2013-07-08 14:04:00,76.1,48.0,30.12,SW,225,0.0,2.2,37,0.00,,---,0.00,VWS V14.01,2013-07-08 18:04:00,
2013-07-08 14:10:00,75.2,49.9,30.12,SSW,206,3.6,3.6,41,0.00,,---,0.00,VWS V14.01,2013-07-08 18:10:00,
2013-07-08 14:15:00,74.3,49.8,30.12,West,263,0.0,0.0,42,0.00,,---,0.00,VWS V14.01,2013-07-08 18:15:00,
2013-07-08 14:20:00,73.4,50.2,30.12,WNW,283,0.0,2.7,44,0.00,,---,0.00,VWS V14.01,2013-07-08 18:20:00,
2013-07-08 14:26:00,72.7,50.7,30.12,ESE,110,0.0,0.0,46,0.00,,---,0.00,VWS V14.01,2013-07-08 18:26:00,
2013-07-08 14:31:00,72.3,50.4,30.12,East,89,2.7,2.7,46,0.00,,---,0.00,VWS V14.01,2013-07-08 18:31:00,
2013-07-08 14:36:00,72.5,51.2,30.12,ESE,117,3.1,4.9,47,0.00,,---,0.00,VWS V14.01,2013-07-08 18:36:00,
2013-07-08 14:41:00,73.9,53.0,30.12,East,84,0.0,0.0,48,0.00,,---,0.00,VWS V14.01,2013-07-08 18:41:00,
2013-07-08 14:47:00,75.4,51.3,30.12,ESE,104,3.6,5.8,43,0.00,,---,0.00,VWS V14.01,2013-07-08 18:47:00,
2013-07-08 14:52:00,76.1,50.7,30.12,ENE,71,5.4,5.4,41,0.00,,---,0.00,VWS V14.01,2013-07-08 18:52:00,
2013-07-08 14:57:00,75.7,48.4,30.12,NNE,25,5.8,5.8,38,0.00,,---,0.00,VWS V14.01,2013-07-08 18:57:00,
2013-07-08 15:02:00,75.7,49.0,30.12,SE,144,0.0,2.7,39,0.00,,---,0.00,VWS V14.01,2013-07-08 19:02:00,
2013-07-08 15:07:00,76.3,50.2,30.12,ENE,59,0.0,2.2,40,0.00,,---,0.00,VWS V14.01,2013-07-08 19:07:00,
2013-07-08 15:13:00,77.0,48.8,30.12,East,98,0.0,2.2,37,0.00,,---,0.00,VWS V14.01,2013-07-08 19:13:00,
2013-07-08 15:18:00,77.9,49.6,30.12,SW,216,0.0,0.0,37,0.00,,---,0.00,VWS V14.01,2013-07-08 19:18:00,
2013-07-08 15:23:00,78.4,49.3,30.12,WSW,255,0.0,0.0,36,0.00,,---,0.00,VWS V14.01,2013-07-08 19:23:00,
2013-07-08 15:28:00,77.9,48.1,30.12,SW,234,0.0,0.0,35,0.00,,---,0.00,VWS V14.01,2013-07-08 19:28:00,
2013-07-08 15:34:00,76.8,48.6,30.09,SW,234,0.0,0.0,37,0.00,,---,0.00,VWS V14.01,2013-07-08 19:34:00,
2013-07-08 15:39:00,76.1,50.7,30.09,SW,234,0.0,0.0,41,0.00,,---,0.00,VWS V14.01,2013-07-08 19:39:00,
2013-07-08 15:45:00,76.6,48.4,30.09,SW,215,2.2,3.1,37,0.00,,---,0.00,VWS V14.01,2013-07-08 19:45:00,
2013-07-08 15:50:00,77.0,50.2,30.09,SW,215,0.0,0.0,39,0.00,,---,0.00,VWS V14.01,2013-07-08 19:50:00,
2013-07-08 15:55:00,76.6,49.8,30.09,SE,133,3.1,3.1,39,0.00,,---,0.00,VWS V14.01,2013-07-08 19:55:00,
2013-07-08 16:00:00,75.6,49.6,30.09,SE,146,0.0,0.0,40,0.00,,---,0.00,VWS V14.01,2013-07-08 20:00:00,
2013-07-08 16:05:00,74.3,49.1,30.09,SE,143,0.0,0.0,41,0.00,,---,0.00,VWS V14.01,2013-07-08 20:05:00,
2013-07-08 16:11:00,73.6,49.7,30.09,SE,143,0.0,0.0,43,0.00,,---,0.00,VWS V14.01,2013-07-08 20:11:00,
2013-07-08 16:16:00,74.1,52.0,30.09,SW,233,3.1,3.1,46,0.00,,---,0.00,VWS V14.01,2013-07-08 20:16:00,
2013-07-08 16:21:00,74.7,50.1,30.09,WSW,240,5.4,5.8,42,0.00,,---,0.00,VWS V14.01,2013-07-08 20:21:00,
2013-07-08 16:26:00,75.2,51.2,30.09,SSW,208,0.0,0.0,43,0.00,,---,0.00,VWS V14.01,2013-07-08 20:26:00,
2013-07-08 16:32:00,74.8,51.5,30.09,SSE,150,0.0,0.0,44,0.00,,---,0.00,VWS V14.01,2013-07-08 20:32:00,
2013-07-08 16:37:00,74.3,50.4,30.09,SSE,163,2.7,3.1,43,0.00,,---,0.00,VWS V14.01,2013-07-08 20:37:00,
2013-07-08 16:43:00,73.9,50.1,30.09,SSW,213,2.7,3.6,43,0.00,,---,0.00,VWS V14.01,2013-07-08 20:43:00,
2013-07-08 16:48:00,73.8,49.9,30.09,NE,44,0.0,3.1,43,0.00,,---,0.00,VWS V14.01,2013-07-08 20:48:00,
2013-07-08 16:53:00,73.6,50.3,30.09,ENE,71,2.2,3.6,44,0.00,,---,0.00,VWS V14.01,2013-07-08 20:53:00,
2013-07-08 16:59:00,73.2,50.6,30.09,SE,130,0.0,0.0,45,0.00,,---,0.00,VWS V14.01,2013-07-08 20:59:00,
2013-07-08 17:04:00,73.2,51.2,30.09,SE,130,0.0,0.0,46,0.00,,---,0.00,VWS V14.01,2013-07-08 21:04:00,
2013-07-08 17:09:00,73.6,51.5,30.09,SE,130,0.0,0.0,46,0.00,,---,0.00,VWS V14.01,2013-07-08 21:09:00,
2013-07-08 17:14:00,74.3,52.8,30.09,SE,130,0.0,0.0,47,0.00,,---,0.00,VWS V14.01,2013-07-08 21:14:00,
2013-07-08 17:19:00,75.6,53.9,30.09,WSW,257,2.7,2.7,47,0.00,,---,0.00,VWS V14.01,2013-07-08 21:19:00,
2013-07-08 17:25:00,77.4,51.2,30.09,West,275,3.1,3.1,40,0.00,,---,0.00,VWS V14.01,2013-07-08 21:25:00,
2013-07-08 17:30:00,79.0,52.6,30.09,WSW,249,0.0,0.0,40,0.00,,---,0.00,VWS V14.01,2013-07-08 21:30:00,
2013-07-08 17:35:00,79.7,49.7,30.09,West,265,2.2,3.6,35,0.00,,---,0.00,VWS V14.01,2013-07-08 21:35:00,
2013-07-08 17:40:00,79.5,47.9,30.09,SW,224,2.2,3.6,33,0.00,,---,0.00,VWS V14.01,2013-07-08 21:40:00,
2013-07-08 17:45:00,79.2,47.6,30.09,SW,231,0.0,0.0,33,0.00,,---,0.00,VWS V14.01,2013-07-08 21:45:00,
2013-07-08 17:50:00,78.4,48.5,30.09,SW,231,0.0,0.0,35,0.00,,---,0.00,VWS V14.01,2013-07-08 21:50:00,
2013-07-08 17:55:00,78.1,49.0,30.09,WSW,237,3.1,3.6,36,0.00,,---,0.00,VWS V14.01,2013-07-08 21:55:00,
2013-07-08 18:01:00,78.3,49.1,30.09,SSE,156,0.0,2.7,36,0.00,,---,0.00,VWS V14.01,2013-07-08 22:01:00,
2013-07-08 18:06:00,78.6,49.5,30.09,SW,229,0.0,0.0,36,0.00,,---,0.00,VWS V14.01,2013-07-08 22:06:00,
2013-07-08 18:12:00,79.3,50.1,30.09,SE,130,0.0,0.0,36,0.00,,---,0.00,VWS V14.01,2013-07-08 22:12:00,
2013-07-08 18:17:00,79.5,48.7,30.06,SE,143,0.0,0.0,34,0.00,,---,0.00,VWS V14.01,2013-07-08 22:17:00,
2013-07-08 18:22:00,79.9,48.2,30.06,West,271,2.2,2.2,33,0.00,,---,0.00,VWS V14.01,2013-07-08 22:22:00,
2013-07-08 18:27:00,80.2,48.5,30.06,West,271,0.0,0.0,33,0.00,,---,0.00,VWS V14.01,2013-07-08 22:27:00,
2013-07-08 18:33:00,80.4,49.5,30.09,West,271,0.0,0.0,34,0.00,,---,0.00,VWS V14.01,2013-07-08 22:33:00,
2013-07-08 18:38:00,79.9,47.4,30.09,SW,219,2.7,3.6,32,0.00,,---,0.00,VWS V14.01,2013-07-08 22:38:00,
2013-07-08 18:44:00,79.0,49.0,30.09,SW,219,0.0,0.0,35,0.00,,---,0.00,VWS V14.01,2013-07-08 22:44:00,
2013-07-08 18:49:00,78.6,48.7,30.06,SW,219,0.0,0.0,35,0.00,,---,0.00,VWS V14.01,2013-07-08 22:49:00,
2013-07-08 18:54:00,78.4,48.5,30.06,SW,219,0.0,0.0,35,0.00,,---,0.00,VWS V14.01,2013-07-08 22:54:00,
2013-07-08 19:00:00,78.1,49.0,30.06,West,276,0.0,0.0,36,0.00,,---,0.00,VWS V14.01,2013-07-08 23:00:00,
2013-07-08 19:05:00,77.4,48.3,30.06,West,276,0.0,0.0,36,0.00,,---,0.00,VWS V14.01,2013-07-08 23:05:00,
2013-07-08 19:11:00,76.3,48.1,30.06,West,276,0.0,0.0,37,0.00,,---,0.00,VWS V14.01,2013-07-08 23:11:00,
2013-07-08 19:16:00,75.4,48.0,30.06,West,276,0.0,0.0,38,0.00,,---,0.00,VWS V14.01,2013-07-08 23:16:00,
2013-07-08 19:21:00,74.5,49.3,30.06,West,276,0.0,0.0,41,0.00,,---,0.00,VWS V14.01,2013-07-08 23:21:00,
2013-07-08 19:26:00,73.8,49.3,30.06,West,276,0.0,0.0,42,0.00,,---,0.00,VWS V14.01,2013-07-08 23:26:00,
2013-07-08 19:31:00,73.4,49.6,30.06,West,276,0.0,0.0,43,0.00,,---,0.00,VWS V14.01,2013-07-08 23:31:00,
2013-07-08 19:37:00,73.2,50.6,30.06,West,276,0.0,0.0,45,0.00,,---,0.00,VWS V14.01,2013-07-08 23:37:00,
2013-07-08 19:42:00,73.0,51.1,30.06,West,276,0.0,0.0,46,0.00,,---,0.00,VWS V14.01,2013-07-08 23:42:00,
2013-07-08 19:47:00,72.7,50.7,30.09,West,276,0.0,0.0,46,0.00,,---,0.00,VWS V14.01,2013-07-08 23:47:00,
2013-07-08 19:52:00,72.5,51.7,30.09,NNE,19,0.0,0.0,48,0.00,,---,0.00,VWS V14.01,2013-07-08 23:52:00,
2013-07-08 19:57:00,72.1,51.9,30.09,NNE,19,0.0,0.0,49,0.00,,---,0.00,VWS V14.01,2013-07-08 23:57:00,
2013-07-08 20:03:00,71.8,52.7,30.09,NNE,21,0.0,0.0,51,0.00,,---,0.00,VWS V14.01,2013-07-09 00:03:00,
2013-07-08 20:09:00,71.6,53.1,30.09,NNE,21,0.0,0.0,52,0.00,,---,0.00,VWS V14.01,2013-07-09 00:09:00,
2013-07-08 20:14:00,71.4,52.9,30.09,NNE,21,0.0,0.0,52,0.00,,---,0.00,VWS V14.01,2013-07-09 00:14:00,
2013-07-08 20:20:00,71.2,53.2,30.09,NNE,21,0.0,0.0,53,0.00,,---,0.00,VWS V14.01,2013-07-09 00:20:00,
2013-07-08 20:25:00,70.9,52.9,30.09,NNE,21,0.0,0.0,53,0.00,,---,0.00,VWS V14.01,2013-07-09 00:25:00,
2013-07-08 20:30:00,70.7,52.8,30.09,NNE,21,0.0,0.0,53,0.00,,---,0.00,VWS V14.01,2013-07-09 00:30:00,
2013-07-08 20:35:00,70.5,53.1,30.09,NNE,21,0.0,0.0,54,0.00,,---,0.00,VWS V14.01,2013-07-09 00:35:00,
2013-07-08 20:40:00,70.3,53.4,30.09,NNE,21,0.0,0.0,55,0.00,,---,0.00,VWS V14.01,2013-07-09 00:40:00,
2013-07-08 20:45:00,70.2,53.3,30.09,NNE,21,0.0,0.0,55,0.00,,---,0.00,VWS V14.01,2013-07-09 00:45:00,
2013-07-08 20:51:00,70.0,53.6,30.09,NNE,21,0.0,0.0,56,0.00,,---,0.00,VWS V14.01,2013-07-09 00:51:00,
2013-07-08 20:56:00,69.8,53.4,30.09,NNE,21,0.0,0.0,56,0.00,,---,0.00,VWS V14.01,2013-07-09 00:56:00,
2013-07-08 21:01:00,69.8,53.9,30.09,NNE,21,0.0,0.0,57,0.00,,---,0.00,VWS V14.01,2013-07-09 01:01:00,
2013-07-08 21:06:00,69.6,53.7,30.09,NNE,25,0.0,0.0,57,0.00,,---,0.00,VWS V14.01,2013-07-09 01:06:00,
2013-07-08 21:11:00,69.6,53.7,30.09,NNE,25,0.0,0.0,57,0.00,,---,0.00,VWS V14.01,2013-07-09 01:11:00,
2013-07-08 21:17:00,69.6,53.7,30.12,NNE,25,0.0,0.0,57,0.00,,---,0.00,VWS V14.01,2013-07-09 01:17:00,
2013-07-08 21:23:00,69.4,54.0,30.12,NNE,25,0.0,0.0,58,0.00,,---,0.00,VWS V14.01,2013-07-09 01:23:00,
2013-07-08 21:29:00,69.3,53.9,30.12,NNE,26,0.0,0.0,58,0.00,,---,0.00,VWS V14.01,2013-07-09 01:29:00,
2013-07-08 21:34:00,69.3,53.4,30.09,NNE,26,2.7,2.7,57,0.00,,---,0.00,VWS V14.01,2013-07-09 01:34:00,
2013-07-08 21:39:00,69.3,53.4,30.09,NNE,26,2.7,3.1,57,0.00,,---,0.00,VWS V14.01,2013-07-09 01:39:00,
2013-07-08 21:44:00,69.3,53.4,30.12,NNE,25,0.0,2.2,57,0.00,,---,0.00,VWS V14.01,2013-07-09 01:44:00,
2013-07-08 21:50:00,69.1,53.2,30.12,NNE,26,0.0,0.0,57,0.00,,---,0.00,VWS V14.01,2013-07-09 01:50:00,
2013-07-08 21:55:00,69.1,52.7,30.12,NNE,25,0.0,0.0,56,0.00,,---,0.00,VWS V14.01,2013-07-09 01:55:00,
2013-07-08 22:00:00,68.9,52.6,30.12,NNE,26,0.0,0.0,56,0.00,,---,0.00,VWS V14.01,2013-07-09 02:00:00,
2013-07-08 22:05:00,68.7,52.4,30.12,NNE,25,0.0,0.0,56,0.00,,---,0.00,VWS V14.01,2013-07-09 02:05:00,
2013-07-08 22:11:00,68.7,52.4,30.12,NNE,27,2.2,3.1,56,0.00,,---,0.00,VWS V14.01,2013-07-09 02:11:00,
2013-07-08 22:16:00,68.5,52.2,30.12,NNE,27,0.0,0.0,56,0.00,,---,0.00,VWS V14.01,2013-07-09 02:16:00,
2013-07-08 22:21:00,68.5,52.2,30.12,NNE,27,0.0,0.0,56,0.00,,---,0.00,VWS V14.01,2013-07-09 02:21:00,
2013-07-08 22:27:00,68.5,52.2,30.12,NNE,27,0.0,0.0,56,0.00,,---,0.00,VWS V14.01,2013-07-09 02:27:00,
2013-07-08 22:33:00,68.4,52.1,30.12,NNE,21,0.0,0.0,56,0.00,,---,0.00,VWS V14.01,2013-07-09 02:33:00,
2013-07-08 22:38:00,68.2,52.4,30.12,NNE,21,0.0,0.0,57,0.00,,---,0.00,VWS V14.01,2013-07-09 02:38:00,
2013-07-08 22:44:00,68.2,52.4,30.12,NNE,21,0.0,0.0,57,0.00,,---,0.00,VWS V14.01,2013-07-09 02:44:00,
2013-07-08 22:49:00,68.0,52.7,30.12,NNE,21,0.0,0.0,58,0.00,,---,0.00,VWS V14.01,2013-07-09 02:49:00,
2013-07-08 22:54:00,68.0,52.2,30.12,NNE,21,0.0,0.0,57,0.00,,---,0.00,VWS V14.01,2013-07-09 02:54:00,
2013-07-08 22:59:00,67.8,52.5,30.12,NNE,21,0.0,0.0,58,0.00,,---,0.00,VWS V14.01,2013-07-09 02:59:00,
2013-07-08 23:05:00,67.6,52.3,30.12,NNE,21,0.0,0.0,58,0.00,,---,0.00,VWS V14.01,2013-07-09 03:05:00,
2013-07-08 23:10:00,67.5,52.2,30.12,NNE,21,0.0,0.0,58,0.00,,---,0.00,VWS V14.01,2013-07-09 03:10:00,
2013-07-08 23:16:00,67.5,52.7,30.12,NNE,21,0.0,0.0,59,0.00,,---,0.00,VWS V14.01,2013-07-09 03:16:00,
2013-07-08 23:21:00,67.5,52.7,30.12,NNE,21,0.0,0.0,59,0.00,,---,0.00,VWS V14.01,2013-07-09 03:21:00,
2013-07-08 23:26:00,67.1,51.8,30.12,NNE,18,0.0,0.0,58,0.00,,---,0.00,VWS V14.01,2013-07-09 03:26:00,
2013-07-08 23:32:00,66.7,52.0,30.12,NNE,18,0.0,0.0,59,0.00,,---,0.00,VWS V14.01,2013-07-09 03:32:00,
2013-07-08 23:37:00,66.6,51.8,30.12,NNE,18,0.0,0.0,59,0.00,,---,0.00,VWS V14.01,2013-07-09 03:37:00,
2013-07-08 23:42:00,66.4,52.1,30.12,NNE,18,0.0,0.0,60,0.00,,---,0.00,VWS V14.01,2013-07-09 03:42:00,
2013-07-08 23:47:00,66.4,52.5,30.12,NNE,18,0.0,0.0,61,0.00,,---,0.00,VWS V14.01,2013-07-09 03:47:00,
2013-07-08 23:53:00,66.6,52.7,30.12,NNE,18,0.0,0.0,61,0.00,,---,0.00,VWS V14.01,2013-07-09 03:53:00,
2013-07-08 23:58:00,66.6,53.2,30.12,NNE,18,0.0,0.0,62,0.00,,---,0.00,VWS V14.01,2013-07-09 03:58:00,